My Meet Scores
Ava VanDuyne, Gymnastics X-Calibur - MyMeetScores.com
Top100 | Top Teams | Upcoming Meets | Completed Meets | Latest | Add Scores | Help| Support | Bookmark and Share

Ava VanDuyne, Gymnastics X-Calibur
Personal Bests
LevelVault BarsBeamFloorAA
39.5009.800 9.6759.90038.875
49.4509.600 9.6009.50038.025
59.3009.225 9.3259.40036.975
69.5759.475 9.5259.67537.775
78.7509.350 9.2759.47536.450
XP9.6259.475 9.6009.72537.850
Scores on America's Top 100as of 11.19.2019
Year Level Vault Bars Beam Floor AA
2015 39.90038.875
2019 XP9.625

Click here to view our
exclusive Top 100 Collection
Meet Scores
Date Meet Team Session Level Division Vault Bars Beam Floor AA
2019-04-05 2019 Illinois XG, XP, XD State Championships Gymnastics X-Calibur 3 XP Jr B 9.625 1 8.900 11 9.600 2T 9.725 2 37.850 2
2019-02-15 Women's Midwest Open Gymnastics X-Calibur 04 XP Junior A 9.175 2 9.475 1 9.375 1T 9.350 1T 37.375 1
2019-02-08 Midwest Twisters Harley Meet Womens Gymnastics X-Calibur T02 XP 12 under 9.125 5 9.300 1 9.050 2 9.700 1 37.175 2
2019-01-25 King Arthur Invitational Gymnastics X-Calibur 20 XP CH 9.325 1 9.350 2 9.000 6T 9.650 1 37.325 1
2019-01-18 2019 Bravo Classic Gymnastics X-Calibur 8A 7 Sr 8.750 5 8.950 4 9.275 3 9.475 5T 36.450 4
2018-11-30 Ultimate Wish Classic Gymnastics X-Calibur 2 7 JR 8.750 14T 9.350 2 8.725 11 9.150 6 35.975 7T
2018-03-16 2018 Illinois Level 6, 9, 10 State Championships Gymnastics X-Calibur 07 6 Ch E 9.350 5T 8.250 20T 9.325 9T 9.675 2T 36.600 15
2018-03-01 Derby Classic 2018 Gymnastics X-Calibur 2B 6 Jr A 0.000 14 9.475 1 0.000 14 0.000 14 9.475 14
2018-02-23 Kinetic Classic Gymnastics X-Calibur 9 6 Middle 9.275 9T 9.450 7T 9.225 21 9.625 4T 37.575 5
2018-02-03 Midwest Games Gymnastics X-Calibur 3 6 JR 9.275 1 9.475 2 9.225 7 9.525 1 37.500 1
2018-01-26 King Arthur Invitational Gymnastics X-Calibur 8 6 JR 9.575 2 9.275 1 9.525 1 9.400 2T 37.775 1
2018-01-12 St Jude Benefit Meet Gymnastics X-Calibur 6C 6 JrB 9.500 1 9.400 2 9.475 3 9.275 2 37.650 1
2017-02-24 St. Louis Classic Gymnastics X-Calibur W-6 5 Jr B 9.300 8T 8.750 8 9.300 3 6.050 20 33.400 15
2017-02-03 St. Valentines Classic Womens Gymnastics X-Calibur 4A 5 9-10 yrs. 9.275 2T 9.125 2 9.325 1T 9.250 2 36.975 1
2017-01-13 St Jude Benefit Meet Gymnastics X-Calibur 1A 5 Jr B 9.175 4 9.225 5 8.700 16 9.150 6 36.250 7
2016-12-02 Ultimate Wish Classic Gymnastics X-Calibur 4 5 Jr A 8.925 4 9.000 2T 9.300 4T 9.400 1 36.625 2
2016-03-10 2016 Illinois Level 4 State Meet Gymnastics X-Calibur All 4 Youth-A 9.150 6 9.400 4 9.525 2 9.425 2 37.500 2
2016-02-27 Midwest Games 2016 Gymnastics X-Calibur 2 4 8-9 9.050 5 9.350 2T 9.200 5 9.275 1 36.875 2
2016-01-22 King Arthur Invitational Gymnastics X-Calibur S16 4 Jr.B 9.450 2 9.600 1 9.525 2 9.325 1 37.900 1
2016-01-15 2016 Bravo Classic Gymnastics X-Calibur 2B 4 6-9yrs 9.375 2 9.550 1 9.600 1T 9.500 1 38.025 1
2015-12-04 2015 Ultimate Wish Classic Gymnastics X-Calibur 9B 4 All 9.000 11 9.425 2 9.150 2 9.425 3 37.000 4
2015-03-12 2015 Illinois Level 3 State Championship Gymnastics X-Calibur All 3 Youth-B 9.500 2 9.800 1 9.675 1 9.900 1 38.875 1
2015-02-13 Midwest Twisters Harley Meet Gymnastics X-Calibur S10 3 8 yrs 9.250 8T 9.450 2 9.600 1 9.550 1 37.850 1
2015-01-23 King Arthur Invitational Gymnastics X-Calibur 11A 3 JrB 9.275 5 9.500 2 9.600 1 9.500 1 37.875 1
2014-10-25 Twist And Turn Gymnastics X-Calibur 4 3 Jr 9.200 5 9.550 1 9.200 2 9.425 3 37.375 1
2014-02-07 Midwest Twisters Harley Meet Gymnastics X-Calibur S09 3 7 yrs. und 9.375 3 9.125 2 8.800 2 8.500 12T 35.800 5
Get your scores on
a t-shirt, pin, or hoodie

www.lazysuits.com